sensor_id;sensor_type;location;lat;lon;timestamp;P1;durP1;ratioP1;P2;durP2;ratioP2
81619;SDS011;71028;53.410;6.710;2024-03-22T00:02:19;26.05;;;14.93;;
81619;SDS011;71028;53.410;6.710;2024-03-22T00:04:46;28.63;;;14.55;;
81619;SDS011;71028;53.410;6.710;2024-03-22T00:07:12;26.65;;;14.32;;
81619;SDS011;71028;53.410;6.710;2024-03-22T00:09:38;25.83;;;14.32;;
81619;SDS011;71028;53.410;6.710;2024-03-22T00:12:04;28.63;;;15.02;;
81619;SDS011;71028;53.410;6.710;2024-03-22T00:14:30;29.27;;;15.30;;
81619;SDS011;71028;53.410;6.710;2024-03-22T00:16:56;24.25;;;14.68;;
81619;SDS011;71028;53.410;6.710;2024-03-22T00:19:22;25.90;;;14.82;;
81619;SDS011;71028;53.410;6.710;2024-03-22T00:21:48;27.33;;;14.50;;
81619;SDS011;71028;53.410;6.710;2024-03-22T00:24:14;23.60;;;14.13;;
81619;SDS011;71028;53.410;6.710;2024-03-22T00:26:40;27.08;;;13.60;;
81619;SDS011;71028;53.410;6.710;2024-03-22T00:29:06;25.15;;;14.60;;
81619;SDS011;71028;53.410;6.710;2024-03-22T00:31:32;26.38;;;14.35;;
81619;SDS011;71028;53.410;6.710;2024-03-22T00:33:58;27.98;;;15.20;;
81619;SDS011;71028;53.410;6.710;2024-03-22T00:36:24;24.13;;;14.32;;
81619;SDS011;71028;53.410;6.710;2024-03-22T00:38:50;26.73;;;15.02;;
81619;SDS011;71028;53.410;6.710;2024-03-22T00:41:16;26.13;;;15.38;;
81619;SDS011;71028;53.410;6.710;2024-03-22T00:43:42;24.25;;;14.65;;
81619;SDS011;71028;53.410;6.710;2024-03-22T00:46:08;24.42;;;13.75;;
81619;SDS011;71028;53.410;6.710;2024-03-22T00:48:34;31.23;;;15.57;;
81619;SDS011;71028;53.410;6.710;2024-03-22T00:51:01;26.73;;;15.02;;
81619;SDS011;71028;53.410;6.710;2024-03-22T00:53:27;24.17;;;14.18;;
81619;SDS011;71028;53.410;6.710;2024-03-22T00:55:54;28.08;;;15.63;;
81619;SDS011;71028;53.410;6.710;2024-03-22T00:58:21;24.38;;;13.68;;
81619;SDS011;71028;53.410;6.710;2024-03-22T01:00:47;25.85;;;14.35;;
81619;SDS011;71028;53.410;6.710;2024-03-22T01:03:13;25.48;;;14.77;;
81619;SDS011;71028;53.410;6.710;2024-03-22T01:05:39;31.70;;;14.88;;
81619;SDS011;71028;53.410;6.710;2024-03-22T01:08:07;26.65;;;15.90;;
81619;SDS011;71028;53.410;6.710;2024-03-22T01:10:33;31.10;;;16.80;;
81619;SDS011;71028;53.410;6.710;2024-03-22T01:12:59;27.73;;;13.82;;
81619;SDS011;71028;53.410;6.710;2024-03-22T01:15:25;32.00;;;15.75;;
81619;SDS011;71028;53.410;6.710;2024-03-22T01:17:52;25.15;;;14.82;;
81619;SDS011;71028;53.410;6.710;2024-03-22T01:20:18;24.55;;;14.50;;
81619;SDS011;71028;53.410;6.710;2024-03-22T01:22:44;26.05;;;14.27;;
81619;SDS011;71028;53.410;6.710;2024-03-22T01:25:10;28.90;;;15.40;;
81619;SDS011;71028;53.410;6.710;2024-03-22T01:27:36;28.48;;;15.05;;
81619;SDS011;71028;53.410;6.710;2024-03-22T01:30:02;34.17;;;16.52;;
81619;SDS011;71028;53.410;6.710;2024-03-22T01:32:28;27.05;;;14.80;;
81619;SDS011;71028;53.410;6.710;2024-03-22T01:34:54;28.80;;;16.27;;
81619;SDS011;71028;53.410;6.710;2024-03-22T01:37:20;32.70;;;17.45;;
81619;SDS011;71028;53.410;6.710;2024-03-22T01:39:46;30.83;;;17.40;;
81619;SDS011;71028;53.410;6.710;2024-03-22T01:42:12;35.15;;;16.13;;
81619;SDS011;71028;53.410;6.710;2024-03-22T01:44:38;34.53;;;16.70;;
81619;SDS011;71028;53.410;6.710;2024-03-22T01:47:04;32.20;;;17.25;;
81619;SDS011;71028;53.410;6.710;2024-03-22T01:49:30;34.45;;;17.40;;
81619;SDS011;71028;53.410;6.710;2024-03-22T01:51:56;33.78;;;17.35;;
81619;SDS011;71028;53.410;6.710;2024-03-22T01:54:22;30.60;;;16.38;;
81619;SDS011;71028;53.410;6.710;2024-03-22T01:56:48;29.90;;;18.02;;
81619;SDS011;71028;53.410;6.710;2024-03-22T01:59:15;34.47;;;18.70;;
81619;SDS011;71028;53.410;6.710;2024-03-22T02:01:41;34.10;;;18.05;;
81619;SDS011;71028;53.410;6.710;2024-03-22T02:04:07;36.40;;;19.80;;
81619;SDS011;71028;53.410;6.710;2024-03-22T02:06:33;37.47;;;17.98;;
81619;SDS011;71028;53.410;6.710;2024-03-22T02:08:59;33.85;;;17.48;;
81619;SDS011;71028;53.410;6.710;2024-03-22T02:11:26;34.50;;;19.08;;
81619;SDS011;71028;53.410;6.710;2024-03-22T02:13:52;37.38;;;19.40;;
81619;SDS011;71028;53.410;6.710;2024-03-22T02:16:18;37.63;;;18.58;;
81619;SDS011;71028;53.410;6.710;2024-03-22T02:18:44;34.88;;;18.60;;
81619;SDS011;71028;53.410;6.710;2024-03-22T02:21:10;41.47;;;21.05;;
81619;SDS011;71028;53.410;6.710;2024-03-22T02:23:37;37.22;;;19.33;;
81619;SDS011;71028;53.410;6.710;2024-03-22T02:26:03;37.58;;;20.80;;
81619;SDS011;71028;53.410;6.710;2024-03-22T02:28:30;37.22;;;19.55;;
81619;SDS011;71028;53.410;6.710;2024-03-22T02:30:57;39.17;;;19.08;;
81619;SDS011;71028;53.410;6.710;2024-03-22T02:33:23;41.53;;;21.42;;
81619;SDS011;71028;53.410;6.710;2024-03-22T02:35:49;40.80;;;20.55;;
81619;SDS011;71028;53.410;6.710;2024-03-22T02:38:16;39.28;;;21.75;;
81619;SDS011;71028;53.410;6.710;2024-03-22T02:40:45;40.47;;;19.45;;
81619;SDS011;71028;53.410;6.710;2024-03-22T02:43:11;38.45;;;20.35;;
81619;SDS011;71028;53.410;6.710;2024-03-22T02:45:38;41.80;;;20.70;;
81619;SDS011;71028;53.410;6.710;2024-03-22T02:48:04;39.75;;;20.98;;
81619;SDS011;71028;53.410;6.710;2024-03-22T02:50:34;41.08;;;19.00;;
81619;SDS011;71028;53.410;6.710;2024-03-22T02:53:00;41.15;;;21.55;;
81619;SDS011;71028;53.410;6.710;2024-03-22T02:55:26;38.03;;;19.88;;
81619;SDS011;71028;53.410;6.710;2024-03-22T02:57:52;40.65;;;19.65;;
81619;SDS011;71028;53.410;6.710;2024-03-22T03:00:18;40.17;;;20.38;;
81619;SDS011;71028;53.410;6.710;2024-03-22T03:02:47;43.75;;;20.60;;
81619;SDS011;71028;53.410;6.710;2024-03-22T03:05:13;44.63;;;21.08;;
81619;SDS011;71028;53.410;6.710;2024-03-22T03:07:39;44.83;;;20.98;;
81619;SDS011;71028;53.410;6.710;2024-03-22T03:10:06;41.22;;;21.00;;
81619;SDS011;71028;53.410;6.710;2024-03-22T03:12:32;42.03;;;20.30;;
81619;SDS011;71028;53.410;6.710;2024-03-22T03:14:58;42.80;;;19.17;;
81619;SDS011;71028;53.410;6.710;2024-03-22T03:17:24;40.50;;;20.10;;
81619;SDS011;71028;53.410;6.710;2024-03-22T03:19:50;46.28;;;21.65;;
81619;SDS011;71028;53.410;6.710;2024-03-22T03:22:16;44.55;;;19.92;;
81619;SDS011;71028;53.410;6.710;2024-03-22T03:24:43;43.30;;;21.08;;
81619;SDS011;71028;53.410;6.710;2024-03-22T03:27:09;46.10;;;21.67;;
81619;SDS011;71028;53.410;6.710;2024-03-22T03:29:36;42.50;;;18.90;;
81619;SDS011;71028;53.410;6.710;2024-03-22T03:32:02;40.28;;;18.73;;
81619;SDS011;71028;53.410;6.710;2024-03-22T03:34:28;41.65;;;20.98;;
81619;SDS011;71028;53.410;6.710;2024-03-22T03:36:54;40.65;;;19.80;;
81619;SDS011;71028;53.410;6.710;2024-03-22T03:39:20;50.50;;;21.90;;
81619;SDS011;71028;53.410;6.710;2024-03-22T03:41:46;41.75;;;19.83;;
81619;SDS011;71028;53.410;6.710;2024-03-22T03:44:12;46.72;;;20.52;;
81619;SDS011;71028;53.410;6.710;2024-03-22T03:46:38;42.20;;;20.15;;
81619;SDS011;71028;53.410;6.710;2024-03-22T03:49:04;45.75;;;20.17;;
81619;SDS011;71028;53.410;6.710;2024-03-22T03:51:30;45.28;;;19.92;;
81619;SDS011;71028;53.410;6.710;2024-03-22T03:53:56;42.95;;;21.05;;
81619;SDS011;71028;53.410;6.710;2024-03-22T03:56:22;49.22;;;21.77;;
81619;SDS011;71028;53.410;6.710;2024-03-22T03:58:48;45.55;;;21.23;;
81619;SDS011;71028;53.410;6.710;2024-03-22T04:01:14;44.28;;;20.67;;
81619;SDS011;71028;53.410;6.710;2024-03-22T04:03:40;46.33;;;21.67;;
81619;SDS011;71028;53.410;6.710;2024-03-22T04:06:06;41.25;;;19.38;;
81619;SDS011;71028;53.410;6.710;2024-03-22T04:08:32;45.92;;;20.05;;
81619;SDS011;71028;53.410;6.710;2024-03-22T04:10:59;43.17;;;20.80;;
81619;SDS011;71028;53.410;6.710;2024-03-22T04:13:25;46.53;;;20.67;;
81619;SDS011;71028;53.410;6.710;2024-03-22T04:15:52;43.03;;;20.25;;
81619;SDS011;71028;53.410;6.710;2024-03-22T04:18:18;50.67;;;21.05;;
81619;SDS011;71028;53.410;6.710;2024-03-22T04:20:54;49.13;;;21.65;;
81619;SDS011;71028;53.410;6.710;2024-03-22T04:23:21;47.25;;;20.98;;
81619;SDS011;71028;53.410;6.710;2024-03-22T04:28:19;42.38;;;21.30;;
81619;SDS011;71028;53.410;6.710;2024-03-22T04:30:53;42.97;;;20.58;;
81619;SDS011;71028;53.410;6.710;2024-03-22T04:33:19;41.25;;;18.67;;
81619;SDS011;71028;53.410;6.710;2024-03-22T04:35:45;45.58;;;19.70;;
81619;SDS011;71028;53.410;6.710;2024-03-22T04:38:11;48.35;;;21.63;;
81619;SDS011;71028;53.410;6.710;2024-03-22T04:40:37;50.25;;;21.77;;
81619;SDS011;71028;53.410;6.710;2024-03-22T04:43:03;46.20;;;18.63;;
81619;SDS011;71028;53.410;6.710;2024-03-22T04:45:29;38.22;;;18.85;;
81619;SDS011;71028;53.410;6.710;2024-03-22T04:47:55;43.67;;;19.70;;
81619;SDS011;71028;53.410;6.710;2024-03-22T04:50:21;52.38;;;22.30;;
81619;SDS011;71028;53.410;6.710;2024-03-22T04:52:47;46.80;;;20.88;;
81619;SDS011;71028;53.410;6.710;2024-03-22T04:55:13;43.38;;;20.40;;
81619;SDS011;71028;53.410;6.710;2024-03-22T04:57:40;50.35;;;20.00;;
81619;SDS011;71028;53.410;6.710;2024-03-22T05:00:06;45.67;;;20.42;;
81619;SDS011;71028;53.410;6.710;2024-03-22T05:02:33;44.58;;;20.42;;
81619;SDS011;71028;53.410;6.710;2024-03-22T05:04:59;44.95;;;19.63;;
81619;SDS011;71028;53.410;6.710;2024-03-22T05:07:26;47.22;;;20.15;;
81619;SDS011;71028;53.410;6.710;2024-03-22T05:09:52;42.65;;;20.60;;
81619;SDS011;71028;53.410;6.710;2024-03-22T05:12:18;46.90;;;20.98;;
81619;SDS011;71028;53.410;6.710;2024-03-22T05:14:44;41.97;;;20.80;;
81619;SDS011;71028;53.410;6.710;2024-03-22T05:17:10;44.53;;;19.48;;
81619;SDS011;71028;53.410;6.710;2024-03-22T05:19:36;43.58;;;19.75;;
81619;SDS011;71028;53.410;6.710;2024-03-22T05:22:02;44.85;;;20.17;;
81619;SDS011;71028;53.410;6.710;2024-03-22T05:24:28;41.88;;;19.75;;
81619;SDS011;71028;53.410;6.710;2024-03-22T05:26:54;44.42;;;21.23;;
81619;SDS011;71028;53.410;6.710;2024-03-22T05:29:20;43.95;;;18.80;;
81619;SDS011;71028;53.410;6.710;2024-03-22T05:31:47;39.90;;;18.60;;
81619;SDS011;71028;53.410;6.710;2024-03-22T05:34:14;44.75;;;19.95;;
81619;SDS011;71028;53.410;6.710;2024-03-22T05:36:41;41.97;;;19.60;;
81619;SDS011;71028;53.410;6.710;2024-03-22T05:39:07;44.85;;;18.13;;
81619;SDS011;71028;53.410;6.710;2024-03-22T05:41:35;42.00;;;18.98;;
81619;SDS011;71028;53.410;6.710;2024-03-22T05:44:01;38.10;;;17.30;;
81619;SDS011;71028;53.410;6.710;2024-03-22T05:46:28;42.60;;;17.55;;
81619;SDS011;71028;53.410;6.710;2024-03-22T05:48:54;43.42;;;19.48;;
81619;SDS011;71028;53.410;6.710;2024-03-22T05:51:20;44.35;;;19.15;;
81619;SDS011;71028;53.410;6.710;2024-03-22T05:53:46;44.72;;;19.27;;
81619;SDS011;71028;53.410;6.710;2024-03-22T05:56:12;37.72;;;17.40;;
81619;SDS011;71028;53.410;6.710;2024-03-22T05:58:38;39.15;;;17.45;;
81619;SDS011;71028;53.410;6.710;2024-03-22T06:01:04;45.63;;;18.25;;
81619;SDS011;71028;53.410;6.710;2024-03-22T06:03:30;37.33;;;17.42;;
81619;SDS011;71028;53.410;6.710;2024-03-22T06:05:56;36.28;;;17.38;;
81619;SDS011;71028;53.410;6.710;2024-03-22T06:08:25;40.45;;;17.02;;
81619;SDS011;71028;53.410;6.710;2024-03-22T06:10:52;37.00;;;16.20;;
81619;SDS011;71028;53.410;6.710;2024-03-22T06:13:18;33.25;;;16.13;;
81619;SDS011;71028;53.410;6.710;2024-03-22T06:15:44;40.88;;;16.95;;
81619;SDS011;71028;53.410;6.710;2024-03-22T06:18:13;34.75;;;15.88;;
81619;SDS011;71028;53.410;6.710;2024-03-22T06:20:40;31.60;;;14.15;;
81619;SDS011;71028;53.410;6.710;2024-03-22T06:23:07;31.10;;;14.43;;
81619;SDS011;71028;53.410;6.710;2024-03-22T06:25:34;35.03;;;14.98;;
81619;SDS011;71028;53.410;6.710;2024-03-22T06:28:00;32.70;;;14.98;;
81619;SDS011;71028;53.410;6.710;2024-03-22T06:30:26;30.17;;;13.70;;
81619;SDS011;71028;53.410;6.710;2024-03-22T06:32:52;29.08;;;12.80;;
81619;SDS011;71028;53.410;6.710;2024-03-22T06:35:19;31.90;;;13.20;;
81619;SDS011;71028;53.410;6.710;2024-03-22T06:37:45;29.60;;;13.82;;
81619;SDS011;71028;53.410;6.710;2024-03-22T06:40:13;29.85;;;13.30;;
81619;SDS011;71028;53.410;6.710;2024-03-22T06:42:39;29.50;;;12.23;;
81619;SDS011;71028;53.410;6.710;2024-03-22T06:45:05;33.92;;;13.10;;
81619;SDS011;71028;53.410;6.710;2024-03-22T06:47:31;29.88;;;12.77;;
81619;SDS011;71028;53.410;6.710;2024-03-22T06:49:57;29.50;;;11.57;;
81619;SDS011;71028;53.410;6.710;2024-03-22T06:52:23;34.20;;;12.98;;
81619;SDS011;71028;53.410;6.710;2024-03-22T06:54:49;23.27;;;10.73;;
81619;SDS011;71028;53.410;6.710;2024-03-22T06:57:17;21.65;;;11.05;;
81619;SDS011;71028;53.410;6.710;2024-03-22T06:59:43;25.92;;;10.80;;
81619;SDS011;71028;53.410;6.710;2024-03-22T07:02:09;22.25;;;10.23;;
81619;SDS011;71028;53.410;6.710;2024-03-22T07:04:35;22.17;;;11.02;;
81619;SDS011;71028;53.410;6.710;2024-03-22T07:07:01;20.48;;;9.98;;
81619;SDS011;71028;53.410;6.710;2024-03-22T07:09:27;21.55;;;10.57;;
81619;SDS011;71028;53.410;6.710;2024-03-22T07:11:54;20.55;;;9.35;;
81619;SDS011;71028;53.410;6.710;2024-03-22T07:14:21;18.33;;;9.52;;
81619;SDS011;71028;53.410;6.710;2024-03-22T07:16:49;18.30;;;9.35;;
81619;SDS011;71028;53.410;6.710;2024-03-22T07:19:15;20.63;;;10.30;;
81619;SDS011;71028;53.410;6.710;2024-03-22T07:21:41;16.98;;;7.82;;
81619;SDS011;71028;53.410;6.710;2024-03-22T07:24:07;18.60;;;9.13;;
81619;SDS011;71028;53.410;6.710;2024-03-22T07:26:33;18.58;;;8.60;;
81619;SDS011;71028;53.410;6.710;2024-03-22T07:28:59;25.27;;;9.85;;
81619;SDS011;71028;53.410;6.710;2024-03-22T07:31:26;18.67;;;9.00;;
81619;SDS011;71028;53.410;6.710;2024-03-22T07:33:53;19.27;;;8.18;;
81619;SDS011;71028;53.410;6.710;2024-03-22T07:36:19;19.77;;;9.13;;
81619;SDS011;71028;53.410;6.710;2024-03-22T07:38:45;16.10;;;7.90;;
81619;SDS011;71028;53.410;6.710;2024-03-22T07:41:11;17.02;;;7.53;;
81619;SDS011;71028;53.410;6.710;2024-03-22T07:43:37;13.35;;;7.20;;
81619;SDS011;71028;53.410;6.710;2024-03-22T07:46:03;14.85;;;7.65;;
81619;SDS011;71028;53.410;6.710;2024-03-22T07:48:29;14.68;;;7.97;;
81619;SDS011;71028;53.410;6.710;2024-03-22T07:50:59;16.33;;;6.90;;
81619;SDS011;71028;53.410;6.710;2024-03-22T07:53:25;12.38;;;6.85;;
81619;SDS011;71028;53.410;6.710;2024-03-22T07:55:51;17.52;;;7.72;;
81619;SDS011;71028;53.410;6.710;2024-03-22T07:58:17;17.45;;;6.90;;
81619;SDS011;71028;53.410;6.710;2024-03-22T08:00:44;14.77;;;7.65;;
81619;SDS011;71028;53.410;6.710;2024-03-22T08:03:16;12.10;;;6.22;;
81619;SDS011;71028;53.410;6.710;2024-03-22T08:05:42;14.13;;;7.47;;
81619;SDS011;71028;53.410;6.710;2024-03-22T08:08:08;11.20;;;6.28;;
81619;SDS011;71028;53.410;6.710;2024-03-22T08:10:34;13.38;;;6.40;;
81619;SDS011;71028;53.410;6.710;2024-03-22T08:13:00;11.52;;;6.60;;
81619;SDS011;71028;53.410;6.710;2024-03-22T08:15:26;13.38;;;7.15;;
81619;SDS011;71028;53.410;6.710;2024-03-22T08:17:52;12.05;;;5.55;;
81619;SDS011;71028;53.410;6.710;2024-03-22T08:20:18;9.68;;;5.68;;
81619;SDS011;71028;53.410;6.710;2024-03-22T08:22:44;9.73;;;5.70;;
81619;SDS011;71028;53.410;6.710;2024-03-22T08:25:10;10.63;;;5.78;;
81619;SDS011;71028;53.410;6.710;2024-03-22T08:27:37;12.13;;;5.80;;
81619;SDS011;71028;53.410;6.710;2024-03-22T08:30:03;9.32;;;5.10;;
81619;SDS011;71028;53.410;6.710;2024-03-22T08:32:29;8.43;;;5.43;;
81619;SDS011;71028;53.410;6.710;2024-03-22T08:34:55;8.88;;;5.20;;
81619;SDS011;71028;53.410;6.710;2024-03-22T08:37:21;10.80;;;5.05;;
81619;SDS011;71028;53.410;6.710;2024-03-22T08:39:47;10.05;;;5.07;;
81619;SDS011;71028;53.410;6.710;2024-03-22T08:42:13;8.32;;;5.10;;
81619;SDS011;71028;53.410;6.710;2024-03-22T08:44:39;10.07;;;4.82;;
81619;SDS011;71028;53.410;6.710;2024-03-22T08:47:05;10.43;;;6.07;;
81619;SDS011;71028;53.410;6.710;2024-03-22T08:49:32;8.20;;;4.78;;
81619;SDS011;71028;53.410;6.710;2024-03-22T08:51:58;8.30;;;4.82;;
81619;SDS011;71028;53.410;6.710;2024-03-22T08:54:24;7.53;;;4.53;;
81619;SDS011;71028;53.410;6.710;2024-03-22T08:56:50;7.70;;;4.55;;
81619;SDS011;71028;53.410;6.710;2024-03-22T08:59:16;8.90;;;5.00;;
81619;SDS011;71028;53.410;6.710;2024-03-22T09:01:42;8.98;;;4.97;;
81619;SDS011;71028;53.410;6.710;2024-03-22T09:04:08;7.47;;;4.30;;
81619;SDS011;71028;53.410;6.710;2024-03-22T09:06:34;6.82;;;4.53;;
81619;SDS011;71028;53.410;6.710;2024-03-22T09:09:00;7.75;;;4.75;;
81619;SDS011;71028;53.410;6.710;2024-03-22T09:11:26;8.40;;;4.75;;
81619;SDS011;71028;53.410;6.710;2024-03-22T09:13:52;7.75;;;4.22;;
81619;SDS011;71028;53.410;6.710;2024-03-22T09:16:23;6.28;;;3.95;;
81619;SDS011;71028;53.410;6.710;2024-03-22T09:18:49;7.30;;;3.90;;
81619;SDS011;71028;53.410;6.710;2024-03-22T09:21:15;7.25;;;4.22;;
81619;SDS011;71028;53.410;6.710;2024-03-22T09:23:41;7.22;;;4.22;;
81619;SDS011;71028;53.410;6.710;2024-03-22T09:26:07;6.68;;;3.83;;
81619;SDS011;71028;53.410;6.710;2024-03-22T09:28:33;6.10;;;3.47;;
81619;SDS011;71028;53.410;6.710;2024-03-22T09:31:06;5.10;;;3.17;;
81619;SDS011;71028;53.410;6.710;2024-03-22T09:33:33;7.85;;;3.28;;
81619;SDS011;71028;53.410;6.710;2024-03-22T09:35:59;5.50;;;2.85;;
81619;SDS011;71028;53.410;6.710;2024-03-22T09:38:25;5.00;;;2.80;;
81619;SDS011;71028;53.410;6.710;2024-03-22T09:40:51;4.82;;;2.85;;
81619;SDS011;71028;53.410;6.710;2024-03-22T09:43:22;7.35;;;3.17;;
81619;SDS011;71028;53.410;6.710;2024-03-22T09:45:51;6.30;;;2.92;;
81619;SDS011;71028;53.410;6.710;2024-03-22T09:48:18;5.38;;;2.95;;
81619;SDS011;71028;53.410;6.710;2024-03-22T09:50:44;4.50;;;2.58;;
81619;SDS011;71028;53.410;6.710;2024-03-22T09:53:12;4.82;;;2.15;;
81619;SDS011;71028;53.410;6.710;2024-03-22T09:55:38;7.25;;;2.90;;
81619;SDS011;71028;53.410;6.710;2024-03-22T09:58:08;4.93;;;2.38;;
81619;SDS011;71028;53.410;6.710;2024-03-22T10:00:34;4.50;;;2.55;;
81619;SDS011;71028;53.410;6.710;2024-03-22T10:03:01;4.90;;;2.60;;
81619;SDS011;71028;53.410;6.710;2024-03-22T10:05:28;4.22;;;2.35;;
81619;SDS011;71028;53.410;6.710;2024-03-22T10:07:55;3.65;;;2.00;;
81619;SDS011;71028;53.410;6.710;2024-03-22T10:10:21;2.88;;;1.83;;
81619;SDS011;71028;53.410;6.710;2024-03-22T10:12:48;4.32;;;2.55;;
81619;SDS011;71028;53.410;6.710;2024-03-22T10:15:14;4.80;;;2.25;;
81619;SDS011;71028;53.410;6.710;2024-03-22T10:17:40;3.78;;;2.17;;
81619;SDS011;71028;53.410;6.710;2024-03-22T10:20:06;4.40;;;2.13;;
81619;SDS011;71028;53.410;6.710;2024-03-22T10:22:47;3.65;;;2.08;;
81619;SDS011;71028;53.410;6.710;2024-03-22T10:25:14;5.05;;;2.33;;
81619;SDS011;71028;53.410;6.710;2024-03-22T10:27:40;3.95;;;2.42;;
81619;SDS011;71028;53.410;6.710;2024-03-22T10:30:08;3.33;;;2.00;;
81619;SDS011;71028;53.410;6.710;2024-03-22T10:32:35;5.22;;;2.67;;
81619;SDS011;71028;53.410;6.710;2024-03-22T10:35:04;3.35;;;2.45;;
81619;SDS011;71028;53.410;6.710;2024-03-22T10:37:35;3.72;;;2.35;;
81619;SDS011;71028;53.410;6.710;2024-03-22T10:40:01;4.40;;;2.20;;
81619;SDS011;71028;53.410;6.710;2024-03-22T10:42:32;4.53;;;2.70;;
81619;SDS011;71028;53.410;6.710;2024-03-22T10:44:58;4.20;;;2.78;;
81619;SDS011;71028;53.410;6.710;2024-03-22T10:47:24;4.57;;;2.58;;
81619;SDS011;71028;53.410;6.710;2024-03-22T10:49:52;7.10;;;2.92;;
81619;SDS011;71028;53.410;6.710;2024-03-22T10:52:24;5.63;;;2.85;;
81619;SDS011;71028;53.410;6.710;2024-03-22T10:54:51;5.07;;;2.30;;
81619;SDS011;71028;53.410;6.710;2024-03-22T10:57:17;5.43;;;2.20;;
81619;SDS011;71028;53.410;6.710;2024-03-22T10:59:43;4.95;;;2.60;;
81619;SDS011;71028;53.410;6.710;2024-03-22T11:02:12;5.45;;;2.60;;
81619;SDS011;71028;53.410;6.710;2024-03-22T11:04:38;6.30;;;2.40;;
81619;SDS011;71028;53.410;6.710;2024-03-22T11:07:04;6.20;;;2.72;;
81619;SDS011;71028;53.410;6.710;2024-03-22T11:09:31;5.47;;;2.47;;
81619;SDS011;71028;53.410;6.710;2024-03-22T11:11:57;4.22;;;2.47;;
81619;SDS011;71028;53.410;6.710;2024-03-22T11:14:24;5.70;;;2.60;;
81619;SDS011;71028;53.410;6.710;2024-03-22T11:16:50;11.02;;;3.17;;
81619;SDS011;71028;53.410;6.710;2024-03-22T11:19:16;7.75;;;2.67;;
81619;SDS011;71028;53.410;6.710;2024-03-22T11:21:42;7.95;;;3.67;;
81619;SDS011;71028;53.410;6.710;2024-03-22T11:24:08;8.45;;;2.72;;
81619;SDS011;71028;53.410;6.710;2024-03-22T11:26:36;5.38;;;2.13;;
81619;SDS011;71028;53.410;6.710;2024-03-22T11:29:02;7.75;;;2.75;;
81619;SDS011;71028;53.410;6.710;2024-03-22T11:31:28;7.93;;;3.20;;
81619;SDS011;71028;53.410;6.710;2024-03-22T11:33:54;7.43;;;3.33;;
81619;SDS011;71028;53.410;6.710;2024-03-22T11:36:21;10.27;;;3.05;;
81619;SDS011;71028;53.410;6.710;2024-03-22T11:38:47;11.10;;;3.30;;
81619;SDS011;71028;53.410;6.710;2024-03-22T11:41:16;8.23;;;2.83;;
81619;SDS011;71028;53.410;6.710;2024-03-22T11:43:43;9.32;;;3.28;;
81619;SDS011;71028;53.410;6.710;2024-03-22T11:46:10;6.45;;;2.97;;
81619;SDS011;71028;53.410;6.710;2024-03-22T11:48:40;10.48;;;3.10;;
81619;SDS011;71028;53.410;6.710;2024-03-22T11:51:07;10.75;;;3.28;;
81619;SDS011;71028;53.410;6.710;2024-03-22T11:53:33;10.95;;;3.03;;
81619;SDS011;71028;53.410;6.710;2024-03-22T11:55:59;8.55;;;3.00;;
81619;SDS011;71028;53.410;6.710;2024-03-22T11:58:26;8.98;;;2.92;;
81619;SDS011;71028;53.410;6.710;2024-03-22T12:00:52;11.25;;;3.85;;
81619;SDS011;71028;53.410;6.710;2024-03-22T12:03:18;11.38;;;3.25;;
81619;SDS011;71028;53.410;6.710;2024-03-22T12:05:44;9.00;;;3.20;;
81619;SDS011;71028;53.410;6.710;2024-03-22T12:08:10;5.68;;;3.10;;
81619;SDS011;71028;53.410;6.710;2024-03-22T12:10:36;8.20;;;2.85;;
81619;SDS011;71028;53.410;6.710;2024-03-22T12:13:02;7.40;;;2.83;;
81619;SDS011;71028;53.410;6.710;2024-03-22T12:15:28;8.55;;;2.88;;
81619;SDS011;71028;53.410;6.710;2024-03-22T12:17:54;14.07;;;2.92;;
81619;SDS011;71028;53.410;6.710;2024-03-22T12:20:20;8.18;;;3.10;;
81619;SDS011;71028;53.410;6.710;2024-03-22T12:22:47;10.30;;;2.47;;
81619;SDS011;71028;53.410;6.710;2024-03-22T12:25:13;7.95;;;2.83;;
81619;SDS011;71028;53.410;6.710;2024-03-22T12:27:38;10.15;;;2.40;;
81619;SDS011;71028;53.410;6.710;2024-03-22T12:30:05;7.78;;;2.83;;
81619;SDS011;71028;53.410;6.710;2024-03-22T12:32:31;11.48;;;2.60;;
81619;SDS011;71028;53.410;6.710;2024-03-22T12:34:57;7.93;;;2.55;;
81619;SDS011;71028;53.410;6.710;2024-03-22T12:37:23;9.95;;;2.50;;
81619;SDS011;71028;53.410;6.710;2024-03-22T12:39:49;10.52;;;2.70;;
81619;SDS011;71028;53.410;6.710;2024-03-22T12:42:17;6.85;;;2.70;;
81619;SDS011;71028;53.410;6.710;2024-03-22T12:44:43;9.57;;;2.53;;
81619;SDS011;71028;53.410;6.710;2024-03-22T12:47:09;5.85;;;1.98;;
81619;SDS011;71028;53.410;6.710;2024-03-22T12:49:35;9.25;;;2.33;;
81619;SDS011;71028;53.410;6.710;2024-03-22T12:52:01;4.85;;;2.03;;
81619;SDS011;71028;53.410;6.710;2024-03-22T12:54:28;5.60;;;2.30;;
81619;SDS011;71028;53.410;6.710;2024-03-22T12:56:54;7.88;;;2.25;;
81619;SDS011;71028;53.410;6.710;2024-03-22T12:59:20;5.10;;;1.95;;
81619;SDS011;71028;53.410;6.710;2024-03-22T13:01:46;8.50;;;2.45;;
81619;SDS011;71028;53.410;6.710;2024-03-22T13:04:12;5.30;;;2.10;;
81619;SDS011;71028;53.410;6.710;2024-03-22T13:06:38;5.32;;;2.10;;
81619;SDS011;71028;53.410;6.710;2024-03-22T13:09:04;5.80;;;3.08;;
81619;SDS011;71028;53.410;6.710;2024-03-22T13:11:31;4.97;;;2.63;;
81619;SDS011;71028;53.410;6.710;2024-03-22T13:13:57;7.57;;;2.33;;
81619;SDS011;71028;53.410;6.710;2024-03-22T13:16:24;6.38;;;2.90;;
81619;SDS011;71028;53.410;6.710;2024-03-22T13:18:50;7.13;;;3.10;;
81619;SDS011;71028;53.410;6.710;2024-03-22T13:21:17;8.85;;;3.58;;
81619;SDS011;71028;53.410;6.710;2024-03-22T13:23:43;6.88;;;3.08;;
81619;SDS011;71028;53.410;6.710;2024-03-22T13:26:09;12.63;;;4.00;;
81619;SDS011;71028;53.410;6.710;2024-03-22T13:28:35;9.00;;;2.88;;
81619;SDS011;71028;53.410;6.710;2024-03-22T13:31:04;8.23;;;2.88;;
81619;SDS011;71028;53.410;6.710;2024-03-22T13:33:33;8.02;;;3.47;;
81619;SDS011;71028;53.410;6.710;2024-03-22T13:36:00;12.20;;;3.05;;
81619;SDS011;71028;53.410;6.710;2024-03-22T13:38:26;6.70;;;2.55;;
81619;SDS011;71028;53.410;6.710;2024-03-22T13:40:57;9.90;;;3.22;;
81619;SDS011;71028;53.410;6.710;2024-03-22T13:43:25;9.48;;;3.00;;
81619;SDS011;71028;53.410;6.710;2024-03-22T13:45:52;10.85;;;3.80;;
81619;SDS011;71028;53.410;6.710;2024-03-22T13:48:22;7.78;;;2.97;;
81619;SDS011;71028;53.410;6.710;2024-03-22T13:50:54;11.02;;;3.53;;
81619;SDS011;71028;53.410;6.710;2024-03-22T13:53:20;8.73;;;2.70;;
81619;SDS011;71028;53.410;6.710;2024-03-22T13:55:47;8.52;;;2.65;;
81619;SDS011;71028;53.410;6.710;2024-03-22T13:58:14;9.75;;;3.35;;
81619;SDS011;71028;53.410;6.710;2024-03-22T14:00:40;12.88;;;3.55;;
81619;SDS011;71028;53.410;6.710;2024-03-22T14:03:06;9.07;;;2.72;;
81619;SDS011;71028;53.410;6.710;2024-03-22T14:05:32;8.63;;;3.00;;
81619;SDS011;71028;53.410;6.710;2024-03-22T14:07:58;8.90;;;2.85;;
81619;SDS011;71028;53.410;6.710;2024-03-22T14:10:24;14.32;;;3.88;;
81619;SDS011;71028;53.410;6.710;2024-03-22T14:12:52;9.80;;;3.38;;
81619;SDS011;71028;53.410;6.710;2024-03-22T14:15:19;12.57;;;2.97;;
81619;SDS011;71028;53.410;6.710;2024-03-22T14:17:45;12.07;;;2.75;;
81619;SDS011;71028;53.410;6.710;2024-03-22T14:20:11;10.93;;;2.83;;
81619;SDS011;71028;53.410;6.710;2024-03-22T14:22:41;11.60;;;2.85;;
81619;SDS011;71028;53.410;6.710;2024-03-22T14:25:07;11.27;;;2.75;;
81619;SDS011;71028;53.410;6.710;2024-03-22T14:27:33;9.65;;;2.70;;
81619;SDS011;71028;53.410;6.710;2024-03-22T14:30:00;6.93;;;2.17;;
81619;SDS011;71028;53.410;6.710;2024-03-22T14:32:26;8.27;;;2.50;;